createdAt,value
2019-05-17T00:01:57.867Z,101170.48
2019-05-17T00:07:06.607Z,101170.48
2019-05-17T00:12:16.547Z,101148.59
2019-05-17T00:17:23.410Z,101155.25
2019-05-17T00:22:30.460Z,101149.70
2019-05-17T00:27:37.573Z,101146.39
2019-05-17T00:32:44.433Z,101135.84
2019-05-17T00:37:51.440Z,101135.84
2019-05-17T00:42:58.458Z,101122.27
2019-05-17T00:48:06.490Z,101124.49
2019-05-17T00:53:13.575Z,101124.49
2019-05-17T00:58:20.576Z,101127.27
2019-05-17T01:03:27.443Z,101113.41
2019-05-17T01:08:34.449Z,101113.41
2019-05-17T01:13:41.531Z,101116.45
2019-05-17T01:18:48.474Z,101120.61
2019-05-17T01:23:56.261Z,101112.02
2019-05-17T01:29:03.518Z,101121.72
2019-05-17T01:34:11.419Z,101118.95
2019-05-17T01:39:21.309Z,101119.49
2019-05-17T01:44:27.408Z,101108.98
2019-05-17T01:49:36.322Z,101117.56
2019-05-17T01:54:43.404Z,101105.64
2019-05-17T01:59:50.469Z,101103.98
2019-05-17T02:04:57.520Z,101103.98
2019-05-17T02:10:04.565Z,101099.28
2019-05-17T02:15:13.059Z,101098.15
2019-05-17T02:20:20.578Z,101101.22
2019-05-17T02:25:27.438Z,101100.10
2019-05-17T02:30:34.475Z,101100.10
2019-05-17T02:35:42.929Z,101098.71
2019-05-17T02:40:53.285Z,101101.47
2019-05-17T02:46:03.478Z,101096.45
2019-05-17T02:51:12.785Z,101096.45
2019-05-17T02:56:17.569Z,101093.41
2019-05-17T03:01:24.443Z,101094.78
2019-05-17T03:06:32.837Z,101093.06
2019-05-17T03:11:42.891Z,101093.06
2019-05-17T03:16:49.387Z,101088.37
2019-05-17T03:21:56.435Z,101091.98
2019-05-17T03:27:03.536Z,101099.16
2019-05-17T03:32:17.202Z,101099.44
2019-05-17T03:37:28.037Z,101099.44
2019-05-17T03:42:33.043Z,101100.03
2019-05-17T03:47:44.451Z,101100.03
2019-05-17T03:52:53.622Z,101093.70
2019-05-17T03:58:03.338Z,101096.19
2019-05-17T04:03:09.422Z,101094.55
2019-05-17T04:08:16.591Z,101092.60
2019-05-17T04:13:24.462Z,101079.05
2019-05-17T04:18:33.663Z,101079.05
2019-05-17T04:23:42.953Z,101075.46
2019-05-17T04:28:49.364Z,101078.77
2019-05-17T04:33:56.443Z,101068.80
2019-05-17T04:39:06.253Z,101064.64
2019-05-17T04:44:12.909Z,101059.39
2019-05-17T04:49:24.039Z,101064.08
2019-05-17T04:54:29.524Z,101066.83
2019-05-17T04:59:36.451Z,101060.99
2019-05-17T05:04:43.884Z,101067.03
2019-05-17T05:09:52.323Z,101069.43
2019-05-17T05:14:59.472Z,101069.95
2019-05-17T05:20:07.426Z,101065.41
2019-05-17T05:25:14.558Z,101053.41
2019-05-17T05:30:22.535Z,101054.22
2019-05-17T05:40:36.218Z,101054.59
2019-05-17T05:45:43.441Z,101058.33
2019-05-17T05:50:52.109Z,101053.74
2019-05-17T05:55:59.422Z,101052.78
2019-05-17T06:01:06.685Z,101048.22
2019-05-17T06:06:13.576Z,101048.22
2019-05-17T06:11:21.623Z,101037.38
2019-05-17T06:16:32.190Z,101037.38
2019-05-17T06:21:39.319Z,101028.03
2019-05-17T06:26:46.485Z,101038.84
2019-05-17T06:31:53.469Z,101036.33
2019-05-17T06:37:02.210Z,101037.88
2019-05-17T06:42:09.383Z,101037.88
2019-05-17T06:47:17.467Z,101036.48
2019-05-17T06:52:24.475Z,101044.77
2019-05-17T06:57:32.542Z,101037.02
2019-05-17T07:02:40.237Z,101037.02
2019-05-17T07:07:49.790Z,101030.47
2019-05-17T07:12:59.648Z,101037.20
2019-05-17T07:18:05.599Z,101026.76
2019-05-17T07:23:11.306Z,101029.77
2019-05-17T07:28:19.928Z,101023.14
2019-05-17T07:33:27.729Z,101010.69
2019-05-17T07:38:33.490Z,101000.78
2019-05-17T07:43:40.670Z,101000.78
2019-05-17T07:48:46.823Z,101010.83
2019-05-17T07:53:53.583Z,100994.75
2019-05-17T07:59:00.549Z,100979.19
2019-05-17T08:04:09.856Z,100979.19
2019-05-17T08:09:17.292Z,100962.59
2019-05-17T08:14:30.083Z,100941.13
2019-05-17T08:19:32.254Z,100921.42
2019-05-17T08:24:39.931Z,100916.30
2019-05-17T08:29:46.252Z,100915.70
2019-05-17T08:34:53.395Z,100921.55
2019-05-17T08:40:00.437Z,100929.16
2019-05-17T08:45:06.573Z,100914.55
2019-05-17T08:50:15.107Z,100912.76
2019-05-17T08:55:22.402Z,100912.76
2019-05-17T09:00:31.519Z,100910.50
2019-05-17T09:05:41.390Z,100910.20
2019-05-17T09:10:50.121Z,100908.59
2019-05-17T09:15:56.385Z,100907.19
2019-05-17T09:21:03.451Z,100900.55
2019-05-17T09:26:12.228Z,100902.05
2019-05-17T09:31:20.594Z,100885.42
2019-05-17T09:36:26.465Z,100873.20
2019-05-17T09:41:33.567Z,100873.20
2019-05-17T09:46:40.566Z,100867.16
2019-05-17T09:51:46.291Z,100867.16
2019-05-17T09:56:53.409Z,100860.45
2019-05-17T10:02:00.744Z,100853.72
2019-05-17T10:07:07.233Z,100852.34
2019-05-17T10:12:14.402Z,100849.27
2019-05-17T10:17:21.559Z,100853.05
2019-05-17T10:22:27.354Z,100845.62
2019-05-17T10:27:34.428Z,100839.47
2019-05-17T10:32:41.743Z,100837.73
2019-05-17T10:37:50.545Z,100837.73
2019-05-17T10:42:57.296Z,100843.05
2019-05-17T10:48:04.436Z,100843.34
2019-05-17T10:53:11.463Z,100844.96
2019-05-17T10:58:21.039Z,100849.05
2019-05-17T11:03:26.257Z,100844.05
2019-05-17T11:08:33.399Z,100840.44
2019-05-17T11:13:39.304Z,100837.03
2019-05-17T11:18:45.287Z,100843.44
2019-05-17T11:23:52.384Z,100827.03
2019-05-17T11:28:59.451Z,100827.03
2019-05-17T11:34:05.318Z,100832.73
2019-05-17T11:39:12.573Z,100826.77
2019-05-17T11:44:19.524Z,100839.97
2019-05-17T11:49:25.290Z,100839.97
2019-05-17T11:54:32.400Z,100836.52
2019-05-17T11:59:39.439Z,100826.43
2019-05-17T12:04:46.437Z,100817.25
2019-05-17T12:09:53.582Z,100805.53
2019-05-17T12:15:00.591Z,100798.23
2019-05-17T12:20:09.935Z,100793.98
2019-05-17T12:25:17.376Z,100793.98
2019-05-17T12:30:24.582Z,100796.73
2019-05-17T12:35:31.565Z,100794.77
2019-05-17T12:40:38.435Z,100802.34
2019-05-17T12:45:59.530Z,100794.59
2019-05-17T12:50:55.461Z,100789.75
2019-05-17T12:56:02.440Z,100781.69
2019-05-17T13:01:09.460Z,100784.98
2019-05-17T13:06:17.606Z,100783.77
2019-05-17T13:12:44.571Z,100771.77
2019-05-17T13:17:51.447Z,100768.89
2019-05-17T13:22:57.307Z,100773.63
2019-05-17T13:28:04.416Z,100769.55
2019-05-17T13:33:10.305Z,100765.36
2019-05-17T13:38:17.405Z,100761.89
2019-05-17T13:43:24.734Z,100764.46
2019-05-17T13:48:30.491Z,100752.28
2019-05-17T13:53:37.454Z,100747.68
2019-05-17T13:58:44.433Z,100745.88
2019-05-17T14:03:51.095Z,100745.88
2019-05-17T14:08:59.441Z,100735.36
2019-05-17T14:14:06.558Z,100731.63
2019-05-17T14:19:13.541Z,100723.70
2019-05-17T14:24:20.562Z,100722.45
2019-05-17T14:29:27.471Z,100721.26
2019-05-17T14:34:38.461Z,100721.26
2019-05-17T14:39:47.235Z,100709.52
2019-05-17T14:44:55.712Z,100703.34
2019-05-17T14:50:04.406Z,100697.58
2019-05-17T14:55:13.928Z,100691.93
2019-05-17T15:00:21.286Z,100683.22
2019-05-17T15:05:28.420Z,100690.19
2019-05-17T15:10:35.438Z,100687.75
2019-05-17T15:15:42.452Z,100682.53
2019-05-17T15:20:49.470Z,100679.00
2019-05-17T15:25:56.337Z,100669.90
2019-05-17T15:31:03.459Z,100661.81
2019-05-17T15:36:09.324Z,100657.80
2019-05-17T15:41:16.423Z,100654.94
2019-05-17T15:46:23.437Z,100658.34
2019-05-17T15:51:30.297Z,100657.13
2019-05-17T15:56:37.555Z,100654.46
2019-05-17T16:01:43.539Z,100647.95
2019-05-17T16:06:50.580Z,100643.38
2019-05-17T16:11:59.333Z,100648.58
2019-05-17T16:17:07.619Z,100648.58
2019-05-17T16:22:13.496Z,100641.46
2019-05-17T16:27:21.047Z,100647.63
2019-05-17T16:32:28.435Z,100647.63
2019-05-17T16:37:34.350Z,100638.22
2019-05-17T16:42:41.666Z,100639.26
2019-05-17T16:47:47.507Z,100623.46
2019-05-17T16:53:05.410Z,100627.00
2019-05-17T16:58:03.453Z,100632.43
2019-05-17T17:03:10.583Z,100632.43
2019-05-17T17:08:17.589Z,100636.21
2019-05-17T17:13:32.646Z,100637.41
2019-05-17T17:18:33.461Z,100637.41
2019-05-17T17:23:40.449Z,100639.55
2019-05-17T17:28:49.706Z,100637.17
2019-05-17T17:33:57.076Z,100625.85
2019-05-17T17:39:06.625Z,100636.92
2019-05-17T17:44:15.269Z,100630.94
2019-05-17T17:49:22.437Z,100630.94
2019-05-17T17:54:29.474Z,100642.61
2019-05-17T17:59:36.474Z,100643.66
2019-05-17T18:04:43.629Z,100648.97
2019-05-17T18:09:55.793Z,100646.98
2019-05-17T18:15:06.514Z,100653.61
2019-05-17T18:20:13.610Z,100660.25
2019-05-17T18:25:20.597Z,100666.16
2019-05-17T18:30:27.720Z,100670.38
2019-05-17T18:35:36.337Z,100670.38
2019-05-17T18:40:45.475Z,100670.61
2019-05-17T18:45:52.574Z,100672.92
2019-05-17T18:50:59.600Z,100682.17
2019-05-17T18:56:05.470Z,100682.17
2019-05-17T19:01:12.926Z,100688.30
2019-05-17T19:06:20.848Z,100691.34
2019-05-17T19:11:28.490Z,100706.50
2019-05-17T19:16:35.559Z,100712.19
2019-05-17T19:21:42.629Z,100714.36
2019-05-17T19:26:48.326Z,100717.70
2019-05-17T19:31:55.719Z,100712.88
2019-05-17T19:37:02.617Z,100723.14
2019-05-17T19:42:12.423Z,100731.84
2019-05-17T19:47:21.587Z,100731.84
2019-05-17T19:52:30.197Z,100734.23
2019-05-17T19:57:37.434Z,100732.47
2019-05-17T20:02:45.517Z,100727.09
2019-05-17T20:07:51.368Z,100724.63
2019-05-17T20:12:58.607Z,100725.73
2019-05-17T20:18:06.614Z,100716.91
2019-05-17T20:23:13.537Z,100724.81
2019-05-17T20:28:21.631Z,100724.81
2019-05-17T20:33:28.610Z,100717.68
2019-05-17T20:38:35.458Z,100719.41
2019-05-17T20:43:43.042Z,100714.91
2019-05-17T20:48:50.449Z,100714.91
2019-05-17T20:53:58.241Z,100709.64
2019-05-17T20:59:05.615Z,100704.06
2019-05-17T21:04:14.640Z,100701.42
2019-05-17T21:09:21.643Z,100689.09
2019-05-17T21:14:28.763Z,100693.03
2019-05-17T21:19:35.593Z,100693.03
2019-05-17T21:24:43.660Z,100696.00
2019-05-17T21:29:50.673Z,100691.89
2019-05-17T21:34:57.664Z,100691.29
